sensor_id;sensor_type;location;lat;lon;timestamp;pressure;altitude;pressure_sealevel;temperature;humidity
37206;BME280;23099;42.636;23.198;2023-02-04T00:02:23;91727.31;;;0.37;90.49
37206;BME280;23099;42.636;23.198;2023-02-04T00:04:51;91732.56;;;0.37;90.04
37206;BME280;23099;42.636;23.198;2023-02-04T00:07:18;91721.75;;;0.38;89.76
37206;BME280;23099;42.636;23.198;2023-02-04T00:09:44;91720.06;;;0.51;87.02
37206;BME280;23099;42.636;23.198;2023-02-04T00:12:12;91710.66;;;0.58;85.75
37206;BME280;23099;42.636;23.198;2023-02-04T00:14:39;91701.53;;;0.64;83.94
37206;BME280;23099;42.636;23.198;2023-02-04T00:17:05;91717.97;;;0.79;81.65
37206;BME280;23099;42.636;23.198;2023-02-04T00:19:35;91708.09;;;0.84;81.28
37206;BME280;23099;42.636;23.198;2023-02-04T00:22:03;91713.66;;;0.91;82.26
37206;BME280;23099;42.636;23.198;2023-02-04T00:24:31;91715.50;;;0.91;82.59
37206;BME280;23099;42.636;23.198;2023-02-04T00:26:58;91728.84;;;0.86;81.60
37206;BME280;23099;42.636;23.198;2023-02-04T00:29:24;91719.84;;;0.87;80.66
37206;BME280;23099;42.636;23.198;2023-02-04T00:31:51;91727.13;;;0.81;82.22
37206;BME280;23099;42.636;23.198;2023-02-04T00:34:18;91724.31;;;0.78;82.40
37206;BME280;23099;42.636;23.198;2023-02-04T00:36:44;91731.25;;;0.74;82.77
37206;BME280;23099;42.636;23.198;2023-02-04T00:39:12;91717.81;;;0.75;82.64
37206;BME280;23099;42.636;23.198;2023-02-04T00:41:39;91720.28;;;0.72;83.96
37206;BME280;23099;42.636;23.198;2023-02-04T00:44:06;91723.53;;;0.68;84.24
37206;BME280;23099;42.636;23.198;2023-02-04T00:46:32;91722.59;;;0.64;85.00
37206;BME280;23099;42.636;23.198;2023-02-04T00:48:59;91717.47;;;0.59;86.05
37206;BME280;23099;42.636;23.198;2023-02-04T00:51:26;91723.47;;;0.51;87.33
37206;BME280;23099;42.636;23.198;2023-02-04T00:53:52;91715.91;;;0.50;87.20
37206;BME280;23099;42.636;23.198;2023-02-04T00:56:20;91709.88;;;0.49;87.04
37206;BME280;23099;42.636;23.198;2023-02-04T00:58:47;91711.41;;;0.50;86.05
37206;BME280;23099;42.636;23.198;2023-02-04T01:01:14;91704.91;;;0.48;86.48
37206;BME280;23099;42.636;23.198;2023-02-04T01:03:41;91691.94;;;0.51;86.68
37206;BME280;23099;42.636;23.198;2023-02-04T01:06:07;91699.22;;;0.54;87.00
37206;BME280;23099;42.636;23.198;2023-02-04T01:08:34;91695.19;;;0.57;86.75
37206;BME280;23099;42.636;23.198;2023-02-04T01:11:01;91690.38;;;0.50;87.24
37206;BME280;23099;42.636;23.198;2023-02-04T01:13:29;91680.94;;;0.58;86.00
37206;BME280;23099;42.636;23.198;2023-02-04T01:15:55;91693.19;;;0.54;85.66
37206;BME280;23099;42.636;23.198;2023-02-04T01:18:22;91662.09;;;0.56;85.55
37206;BME280;23099;42.636;23.198;2023-02-04T01:20:49;91667.34;;;0.56;85.76
37206;BME280;23099;42.636;23.198;2023-02-04T01:23:16;91670.28;;;0.54;85.39
37206;BME280;23099;42.636;23.198;2023-02-04T01:25:42;91676.31;;;0.55;85.16
37206;BME280;23099;42.636;23.198;2023-02-04T01:28:10;91655.72;;;0.48;85.49
37206;BME280;23099;42.636;23.198;2023-02-04T01:30:38;91640.41;;;0.42;85.58
37206;BME280;23099;42.636;23.198;2023-02-04T01:33:04;91647.38;;;0.46;84.09
37206;BME280;23099;42.636;23.198;2023-02-04T01:35:31;91636.72;;;0.51;84.74
37206;BME280;23099;42.636;23.198;2023-02-04T01:37:58;91641.06;;;0.56;85.80
37206;BME280;23099;42.636;23.198;2023-02-04T01:40:25;91645.69;;;0.59;84.84
37206;BME280;23099;42.636;23.198;2023-02-04T01:42:52;91634.25;;;0.63;84.57
37206;BME280;23099;42.636;23.198;2023-02-04T01:45:19;91628.69;;;0.65;84.13
37206;BME280;23099;42.636;23.198;2023-02-04T01:47:47;91644.03;;;0.72;83.62
37206;BME280;23099;42.636;23.198;2023-02-04T01:50:16;91637.22;;;0.70;84.69
37206;BME280;23099;42.636;23.198;2023-02-04T01:52:43;91624.81;;;0.62;85.54
37206;BME280;23099;42.636;23.198;2023-02-04T01:55:13;91641.19;;;0.59;85.41
37206;BME280;23099;42.636;23.198;2023-02-04T01:57:42;91646.47;;;0.59;84.79
37206;BME280;23099;42.636;23.198;2023-02-04T02:00:13;91645.72;;;0.67;85.13
37206;BME280;23099;42.636;23.198;2023-02-04T02:02:44;91636.13;;;0.72;85.27
37206;BME280;23099;42.636;23.198;2023-02-04T02:05:14;91655.31;;;0.72;85.67
37206;BME280;23099;42.636;23.198;2023-02-04T02:07:42;91646.19;;;0.69;85.75
37206;BME280;23099;42.636;23.198;2023-02-04T02:10:10;91612.13;;;0.73;84.67
37206;BME280;23099;42.636;23.198;2023-02-04T02:12:38;91605.34;;;0.72;84.23
37206;BME280;23099;42.636;23.198;2023-02-04T02:15:06;91629.47;;;0.74;84.64
37206;BME280;23099;42.636;23.198;2023-02-04T02:17:33;91604.56;;;0.72;84.61
37206;BME280;23099;42.636;23.198;2023-02-04T02:20:00;91613.97;;;0.73;84.73
37206;BME280;23099;42.636;23.198;2023-02-04T02:22:32;91568.19;;;0.74;84.26
37206;BME280;23099;42.636;23.198;2023-02-04T02:25:08;91588.91;;;0.75;84.47
37206;BME280;23099;42.636;23.198;2023-02-04T02:27:35;91591.88;;;0.74;84.90
37206;BME280;23099;42.636;23.198;2023-02-04T02:30:01;91583.34;;;0.77;85.39
37206;BME280;23099;42.636;23.198;2023-02-04T02:32:29;91557.84;;;0.77;85.33
37206;BME280;23099;42.636;23.198;2023-02-04T02:34:55;91557.22;;;0.72;85.51
37206;BME280;23099;42.636;23.198;2023-02-04T02:37:22;91541.28;;;0.68;85.93
37206;BME280;23099;42.636;23.198;2023-02-04T02:39:49;91571.16;;;0.72;86.04
37206;BME280;23099;42.636;23.198;2023-02-04T02:42:18;91563.41;;;0.76;85.43
37206;BME280;23099;42.636;23.198;2023-02-04T02:44:46;91557.38;;;0.75;85.77
37206;BME280;23099;42.636;23.198;2023-02-04T02:47:14;91556.28;;;0.76;84.83
37206;BME280;23099;42.636;23.198;2023-02-04T02:49:42;91528.13;;;0.77;85.13
37206;BME280;23099;42.636;23.198;2023-02-04T02:52:10;91530.44;;;0.78;85.34
37206;BME280;23099;42.636;23.198;2023-02-04T02:54:37;91517.13;;;0.83;84.87
37206;BME280;23099;42.636;23.198;2023-02-04T02:57:10;91516.22;;;0.79;85.02
37206;BME280;23099;42.636;23.198;2023-02-04T02:59:38;91525.81;;;0.84;84.60
37206;BME280;23099;42.636;23.198;2023-02-04T03:02:05;91511.25;;;0.86;85.17
37206;BME280;23099;42.636;23.198;2023-02-04T03:04:36;91510.81;;;0.84;83.94
37206;BME280;23099;42.636;23.198;2023-02-04T03:07:05;91509.22;;;0.92;84.10
37206;BME280;23099;42.636;23.198;2023-02-04T03:09:32;91507.84;;;0.86;83.98
37206;BME280;23099;42.636;23.198;2023-02-04T03:11:59;91505.03;;;0.91;84.01
37206;BME280;23099;42.636;23.198;2023-02-04T03:14:27;91535.84;;;0.90;84.20
37206;BME280;23099;42.636;23.198;2023-02-04T03:16:55;91508.59;;;0.95;84.77
37206;BME280;23099;42.636;23.198;2023-02-04T03:19:23;91545.59;;;0.98;83.81
37206;BME280;23099;42.636;23.198;2023-02-04T03:21:51;91519.56;;;1.05;84.04
37206;BME280;23099;42.636;23.198;2023-02-04T03:24:18;91517.53;;;1.11;84.20
37206;BME280;23099;42.636;23.198;2023-02-04T03:26:45;91517.25;;;1.04;84.07
37206;BME280;23099;42.636;23.198;2023-02-04T03:29:12;91515.84;;;1.06;83.93
37206;BME280;23099;42.636;23.198;2023-02-04T03:31:39;91518.47;;;1.15;83.79
37206;BME280;23099;42.636;23.198;2023-02-04T03:34:07;91527.00;;;1.12;84.10
37206;BME280;23099;42.636;23.198;2023-02-04T03:36:33;91514.91;;;1.11;83.94
37206;BME280;23099;42.636;23.198;2023-02-04T03:39:00;91542.16;;;1.15;83.76
37206;BME280;23099;42.636;23.198;2023-02-04T03:41:28;91537.47;;;1.21;83.41
37206;BME280;23099;42.636;23.198;2023-02-04T03:43:55;91528.47;;;1.30;82.55
37206;BME280;23099;42.636;23.198;2023-02-04T03:46:21;91522.88;;;1.32;82.25
37206;BME280;23099;42.636;23.198;2023-02-04T03:48:50;91524.44;;;1.33;81.99
37206;BME280;23099;42.636;23.198;2023-02-04T03:51:18;91521.81;;;1.33;81.64
37206;BME280;23099;42.636;23.198;2023-02-04T03:53:45;91506.97;;;1.28;81.70
37206;BME280;23099;42.636;23.198;2023-02-04T03:56:11;91503.69;;;1.31;82.42
37206;BME280;23099;42.636;23.198;2023-02-04T03:58:38;91481.09;;;1.30;82.14
37206;BME280;23099;42.636;23.198;2023-02-04T04:01:05;91467.19;;;1.30;82.74
37206;BME280;23099;42.636;23.198;2023-02-04T04:03:31;91467.03;;;1.26;83.33
37206;BME280;23099;42.636;23.198;2023-02-04T04:05:58;91492.16;;;1.15;83.12
37206;BME280;23099;42.636;23.198;2023-02-04T04:08:26;91470.44;;;1.18;84.63
37206;BME280;23099;42.636;23.198;2023-02-04T04:10:53;91464.72;;;1.16;85.65
37206;BME280;23099;42.636;23.198;2023-02-04T04:13:19;91458.88;;;1.11;88.58
37206;BME280;23099;42.636;23.198;2023-02-04T04:15:46;91461.22;;;1.03;90.91
37206;BME280;23099;42.636;23.198;2023-02-04T04:18:13;91459.03;;;1.05;90.98
37206;BME280;23099;42.636;23.198;2023-02-04T04:20:39;91447.94;;;1.00;91.50
37206;BME280;23099;42.636;23.198;2023-02-04T04:23:06;91458.00;;;0.98;92.12
37206;BME280;23099;42.636;23.198;2023-02-04T04:25:34;91479.03;;;0.98;91.34
37206;BME280;23099;42.636;23.198;2023-02-04T04:28:01;91469.41;;;1.02;90.15
37206;BME280;23099;42.636;23.198;2023-02-04T04:30:27;91457.19;;;1.06;90.42
37206;BME280;23099;42.636;23.198;2023-02-04T04:32:54;91445.41;;;1.03;89.22
37206;BME280;23099;42.636;23.198;2023-02-04T04:35:21;91455.06;;;0.99;89.34
37206;BME280;23099;42.636;23.198;2023-02-04T04:37:47;91470.50;;;1.10;89.46
37206;BME280;23099;42.636;23.198;2023-02-04T04:40:14;91473.59;;;1.12;89.08
37206;BME280;23099;42.636;23.198;2023-02-04T04:42:42;91487.81;;;1.11;90.14
37206;BME280;23099;42.636;23.198;2023-02-04T04:45:10;91499.28;;;1.15;91.82
37206;BME280;23099;42.636;23.198;2023-02-04T04:47:36;91468.00;;;1.04;91.37
37206;BME280;23099;42.636;23.198;2023-02-04T04:50:04;91471.63;;;1.00;92.07
37206;BME280;23099;42.636;23.198;2023-02-04T04:52:31;91503.19;;;1.00;92.23
37206;BME280;23099;42.636;23.198;2023-02-04T04:54:58;91498.81;;;1.04;92.62
37206;BME280;23099;42.636;23.198;2023-02-04T04:57:24;91501.16;;;1.05;91.85
37206;BME280;23099;42.636;23.198;2023-02-04T04:59:52;91500.84;;;1.07;92.19
37206;BME280;23099;42.636;23.198;2023-02-04T05:02:19;91492.00;;;1.03;92.45
37206;BME280;23099;42.636;23.198;2023-02-04T05:04:46;91497.63;;;0.93;92.76
37206;BME280;23099;42.636;23.198;2023-02-04T05:07:12;91491.13;;;0.90;94.39
37206;BME280;23099;42.636;23.198;2023-02-04T05:09:39;91484.63;;;0.88;95.34
37206;BME280;23099;42.636;23.198;2023-02-04T05:12:06;91490.97;;;0.87;96.01
37206;BME280;23099;42.636;23.198;2023-02-04T05:14:32;91486.97;;;0.81;96.75
37206;BME280;23099;42.636;23.198;2023-02-04T05:17:00;91491.16;;;0.73;98.19
37206;BME280;23099;42.636;23.198;2023-02-04T05:19:27;91498.28;;;0.64;99.76
37206;BME280;23099;42.636;23.198;2023-02-04T05:21:54;91495.03;;;0.58;100.00
37206;BME280;23099;42.636;23.198;2023-02-04T05:24:21;91507.88;;;0.51;100.00
37206;BME280;23099;42.636;23.198;2023-02-04T05:26:48;91498.47;;;0.42;100.00
37206;BME280;23099;42.636;23.198;2023-02-04T05:29:15;91513.44;;;0.50;100.00
37206;BME280;23099;42.636;23.198;2023-02-04T05:31:41;91519.94;;;0.52;100.00
37206;BME280;23099;42.636;23.198;2023-02-04T05:34:09;91511.28;;;0.52;100.00
37206;BME280;23099;42.636;23.198;2023-02-04T05:36:36;91524.88;;;0.62;100.00
37206;BME280;23099;42.636;23.198;2023-02-04T05:39:03;91534.34;;;0.72;100.00
37206;BME280;23099;42.636;23.198;2023-02-04T05:41:29;91533.72;;;0.66;100.00
37206;BME280;23099;42.636;23.198;2023-02-04T05:43:56;91540.53;;;0.67;100.00
37206;BME280;23099;42.636;23.198;2023-02-04T05:46:23;91549.34;;;0.72;100.00
37206;BME280;23099;42.636;23.198;2023-02-04T05:48:50;91560.94;;;0.70;99.76
37206;BME280;23099;42.636;23.198;2023-02-04T05:51:18;91559.09;;;0.71;99.12
37206;BME280;23099;42.636;23.198;2023-02-04T05:53:44;91563.88;;;0.78;99.01
37206;BME280;23099;42.636;23.198;2023-02-04T05:56:11;91558.28;;;0.79;99.26
37206;BME280;23099;42.636;23.198;2023-02-04T05:58:38;91561.88;;;0.83;99.43
37206;BME280;23099;42.636;23.198;2023-02-04T06:01:05;91559.34;;;0.87;99.40
37206;BME280;23099;42.636;23.198;2023-02-04T06:03:31;91557.84;;;0.86;99.85
37206;BME280;23099;42.636;23.198;2023-02-04T06:05:58;91568.66;;;0.76;100.00
37206;BME280;23099;42.636;23.198;2023-02-04T06:08:26;91550.72;;;0.60;100.00
37206;BME280;23099;42.636;23.198;2023-02-04T06:10:53;91551.50;;;0.61;100.00
37206;BME280;23099;42.636;23.198;2023-02-04T06:13:21;91549.78;;;0.48;100.00
37206;BME280;23099;42.636;23.198;2023-02-04T06:15:47;91540.06;;;0.48;100.00
37206;BME280;23099;42.636;23.198;2023-02-04T06:18:14;91542.22;;;0.46;100.00
37206;BME280;23099;42.636;23.198;2023-02-04T06:20:41;91548.72;;;0.49;100.00
37206;BME280;23099;42.636;23.198;2023-02-04T06:23:08;91544.69;;;0.51;100.00
37206;BME280;23099;42.636;23.198;2023-02-04T06:25:36;91558.13;;;0.58;100.00
37206;BME280;23099;42.636;23.198;2023-02-04T06:28:03;91536.78;;;0.60;100.00
37206;BME280;23099;42.636;23.198;2023-02-04T06:30:29;91558.28;;;0.62;100.00
37206;BME280;23099;42.636;23.198;2023-02-04T06:32:56;91544.97;;;0.76;100.00
37206;BME280;23099;42.636;23.198;2023-02-04T06:35:23;91535.41;;;0.80;99.55
37206;BME280;23099;42.636;23.198;2023-02-04T06:37:49;91547.44;;;0.89;98.38
37206;BME280;23099;42.636;23.198;2023-02-04T06:40:16;91556.91;;;0.99;98.10
37206;BME280;23099;42.636;23.198;2023-02-04T06:42:44;91549.59;;;1.04;97.32
37206;BME280;23099;42.636;23.198;2023-02-04T06:45:11;91558.56;;;1.03;97.11
37206;BME280;23099;42.636;23.198;2023-02-04T06:47:38;91553.78;;;0.97;95.32
37206;BME280;23099;42.636;23.198;2023-02-04T06:50:05;91546.06;;;0.92;93.75
37206;BME280;23099;42.636;23.198;2023-02-04T06:52:32;91549.16;;;0.94;94.00
37206;BME280;23099;42.636;23.198;2023-02-04T06:54:58;91546.84;;;1.01;94.30
37206;BME280;23099;42.636;23.198;2023-02-04T06:57:25;91538.44;;;1.08;95.40
37206;BME280;23099;42.636;23.198;2023-02-04T06:59:53;91536.75;;;1.12;93.40
37206;BME280;23099;42.636;23.198;2023-02-04T07:02:20;91546.47;;;1.20;92.63
37206;BME280;23099;42.636;23.198;2023-02-04T07:04:46;91537.47;;;1.21;90.22
37206;BME280;23099;42.636;23.198;2023-02-04T07:07:13;91530.66;;;1.28;89.94
37206;BME280;23099;42.636;23.198;2023-02-04T07:09:40;91539.00;;;1.30;90.47
37206;BME280;23099;42.636;23.198;2023-02-04T07:12:07;91542.88;;;1.33;90.51
37206;BME280;23099;42.636;23.198;2023-02-04T07:14:33;91544.09;;;1.35;91.02
37206;BME280;23099;42.636;23.198;2023-02-04T07:17:01;91548.44;;;1.31;92.45
37206;BME280;23099;42.636;23.198;2023-02-04T07:19:28;91558.19;;;1.31;91.45
37206;BME280;23099;42.636;23.198;2023-02-04T07:21:55;91543.69;;;1.16;89.98
37206;BME280;23099;42.636;23.198;2023-02-04T07:24:22;91524.81;;;1.05;90.34
37206;BME280;23099;42.636;23.198;2023-02-04T07:26:49;91526.41;;;0.98;90.56
37206;BME280;23099;42.636;23.198;2023-02-04T07:29:16;91523.16;;;1.01;89.39
37206;BME280;23099;42.636;23.198;2023-02-04T07:31:43;91524.81;;;1.14;90.60
37206;BME280;23099;42.636;23.198;2023-02-04T07:34:12;91538.56;;;1.28;90.24
37206;BME280;23099;42.636;23.198;2023-02-04T07:36:39;91521.78;;;1.41;89.99
37206;BME280;23099;42.636;23.198;2023-02-04T07:39:06;91528.41;;;1.56;88.99
37206;BME280;23099;42.636;23.198;2023-02-04T07:41:33;91516.72;;;1.66;87.37
37206;BME280;23099;42.636;23.198;2023-02-04T07:43:59;91525.88;;;1.68;86.29
37206;BME280;23099;42.636;23.198;2023-02-04T07:46:26;91520.19;;;1.58;86.86
37206;BME280;23099;42.636;23.198;2023-02-04T07:48:53;91539.19;;;1.63;86.52
37206;BME280;23099;42.636;23.198;2023-02-04T07:51:21;91538.88;;;1.65;85.82
37206;BME280;23099;42.636;23.198;2023-02-04T07:53:48;91529.22;;;1.77;86.75
37206;BME280;23099;42.636;23.198;2023-02-04T07:56:15;91525.94;;;1.81;85.18
37206;BME280;23099;42.636;23.198;2023-02-04T07:58:41;91519.31;;;1.74;85.58
37206;BME280;23099;42.636;23.198;2023-02-04T08:01:08;91527.22;;;1.74;85.00
37206;BME280;23099;42.636;23.198;2023-02-04T08:03:35;91529.91;;;1.66;83.24
37206;BME280;23099;42.636;23.198;2023-02-04T08:06:01;91525.88;;;1.60;84.47
37206;BME280;23099;42.636;23.198;2023-02-04T08:08:29;91520.81;;;1.55;85.57
37206;BME280;23099;42.636;23.198;2023-02-04T08:10:56;91533.97;;;1.55;85.82
37206;BME280;23099;42.636;23.198;2023-02-04T08:13:23;91528.09;;;1.49;86.13
37206;BME280;23099;42.636;23.198;2023-02-04T08:15:50;91522.09;;;1.40;86.96
37206;BME280;23099;42.636;23.198;2023-02-04T08:18:16;91531.09;;;1.39;86.66
37206;BME280;23099;42.636;23.198;2023-02-04T08:20:43;91511.34;;;1.07;89.35
37206;BME280;23099;42.636;23.198;2023-02-04T08:23:10;91522.94;;;1.23;89.43
37206;BME280;23099;42.636;23.198;2023-02-04T08:25:38;91523.97;;;1.31;88.82
37206;BME280;23099;42.636;23.198;2023-02-04T08:28:04;91528.63;;;1.34;89.80
37206;BME280;23099;42.636;23.198;2023-02-04T08:30:31;91527.72;;;1.30;90.01
37206;BME280;23099;42.636;23.198;2023-02-04T08:32:58;91523.53;;;1.29;91.32
37206;BME280;23099;42.636;23.198;2023-02-04T08:35:24;91515.13;;;1.35;92.99
37206;BME280;23099;42.636;23.198;2023-02-04T08:37:51;91514.56;;;1.30;92.27
37206;BME280;23099;42.636;23.198;2023-02-04T08:40:18;91517.19;;;1.30;93.23
37206;BME280;23099;42.636;23.198;2023-02-04T08:42:46;91523.97;;;1.31;94.55
37206;BME280;23099;42.636;23.198;2023-02-04T08:45:13;91511.94;;;1.21;95.16
37206;BME280;23099;42.636;23.198;2023-02-04T08:47:40;91514.41;;;1.18;94.97
37206;BME280;23099;42.636;23.198;2023-02-04T08:50:08;91509.16;;;1.18;96.66
37206;BME280;23099;42.636;23.198;2023-02-04T08:52:35;91529.59;;;1.21;96.57
37206;BME280;23099;42.636;23.198;2023-02-04T08:55:02;91524.16;;;1.17;96.86
37206;BME280;23099;42.636;23.198;2023-02-04T08:57:29;91529.88;;;1.28;97.32
37206;BME280;23099;42.636;23.198;2023-02-04T08:59:57;91517.16;;;1.38;97.46
37206;BME280;23099;42.636;23.198;2023-02-04T09:02:23;91511.84;;;1.47;97.02
37206;BME280;23099;42.636;23.198;2023-02-04T09:04:50;91511.38;;;1.45;97.86
37206;BME280;23099;42.636;23.198;2023-02-04T09:07:17;91510.94;;;1.43;98.06
37206;BME280;23099;42.636;23.198;2023-02-04T09:09:43;91513.59;;;1.43;98.83
37206;BME280;23099;42.636;23.198;2023-02-04T09:12:10;91524.88;;;1.44;98.63
37206;BME280;23099;42.636;23.198;2023-02-04T09:14:37;91524.13;;;1.43;98.57
37206;BME280;23099;42.636;23.198;2023-02-04T09:17:05;91514.16;;;1.49;98.04
37206;BME280;23099;42.636;23.198;2023-02-04T09:19:32;91501.50;;;1.42;98.96
37206;BME280;23099;42.636;23.198;2023-02-04T09:21:58;91516.38;;;1.38;99.64
37206;BME280;23099;42.636;23.198;2023-02-04T09:24:25;91496.56;;;1.40;99.76
37206;BME280;23099;42.636;23.198;2023-02-04T09:26:52;91506.88;;;1.54;99.39
37206;BME280;23099;42.636;23.198;2023-02-04T09:29:18;91503.78;;;1.52;99.25
37206;BME280;23099;42.636;23.198;2023-02-04T09:31:45;91493.09;;;1.49;99.33
37206;BME280;23099;42.636;23.198;2023-02-04T09:34:13;91475.38;;;1.28;99.19
37206;BME280;23099;42.636;23.198;2023-02-04T09:36:40;91484.00;;;1.37;100.00
37206;BME280;23099;42.636;23.198;2023-02-04T09:39:07;91484.38;;;1.27;100.00
37206;BME280;23099;42.636;23.198;2023-02-04T09:41:35;91502.81;;;1.19;100.00
37206;BME280;23099;42.636;23.198;2023-02-04T09:44:03;91501.41;;;1.30;100.00
37206;BME280;23099;42.636;23.198;2023-02-04T09:46:31;91496.25;;;1.33;100.00
37206;BME280;23099;42.636;23.198;2023-02-04T09:48:58;91490.81;;;1.38;100.00
37206;BME280;23099;42.636;23.198;2023-02-04T09:51:32;91499.34;;;1.35;100.00
37206;BME280;23099;42.636;23.198;2023-02-04T09:54:04;91499.06;;;1.28;100.00
37206;BME280;23099;42.636;23.198;2023-02-04T09:56:32;91495.69;;;1.19;100.00
37206;BME280;23099;42.636;23.198;2023-02-04T09:58:59;91480.19;;;1.26;100.00
37206;BME280;23099;42.636;23.198;2023-02-04T10:01:26;91472.00;;;1.19;100.00
37206;BME280;23099;42.636;23.198;2023-02-04T10:03:54;91467.09;;;1.09;100.00
37206;BME280;23099;42.636;23.198;2023-02-04T10:06:24;91474.03;;;1.14;100.00
37206;BME280;23099;42.636;23.198;2023-02-04T10:08:53;91467.19;;;1.21;100.00
37206;BME280;23099;42.636;23.198;2023-02-04T10:11:23;91452.34;;;1.17;100.00
37206;BME280;23099;42.636;23.198;2023-02-04T10:13:53;91467.03;;;1.18;100.00
37206;BME280;23099;42.636;23.198;2023-02-04T10:16:22;91472.03;;;1.11;100.00
37206;BME280;23099;42.636;23.198;2023-02-04T10:18:54;91462.28;;;1.11;100.00
37206;BME280;23099;42.636;23.198;2023-02-04T10:21:24;91455.16;;;1.03;100.00
37206;BME280;23099;42.636;23.198;2023-02-04T10:23:55;91452.41;;;0.99;100.00
37206;BME280;23099;42.636;23.198;2023-02-04T10:26:25;91460.63;;;0.98;100.00
37206;BME280;23099;42.636;23.198;2023-02-04T10:28:58;91448.81;;;1.13;100.00
37206;BME280;23099;42.636;23.198;2023-02-04T10:31:30;91445.88;;;1.14;100.00
37206;BME280;23099;42.636;23.198;2023-02-04T10:34:14;91439.00;;;1.22;100.00
37206;BME280;23099;42.636;23.198;2023-02-04T10:36:42;91443.34;;;1.18;100.00
37206;BME280;23099;42.636;23.198;2023-02-04T10:39:15;91436.59;;;1.08;100.00
37206;BME280;23099;42.636;23.198;2023-02-04T10:41:50;91444.78;;;1.06;100.00
37206;BME280;23099;42.636;23.198;2023-02-04T10:44:19;91415.59;;;0.99;100.00
37206;BME280;23099;42.636;23.198;2023-02-04T10:46:46;91432.25;;;1.03;100.00
37206;BME280;23099;42.636;23.198;2023-02-04T10:49:20;91437.22;;;1.05;100.00
37206;BME280;23099;42.636;23.198;2023-02-04T10:51:49;91444.47;;;1.08;100.00
37206;BME280;23099;42.636;23.198;2023-02-04T10:54:20;91433.91;;;1.17;100.00
37206;BME280;23099;42.636;23.198;2023-02-04T10:56:57;91433.28;;;1.20;100.00
37206;BME280;23099;42.636;23.198;2023-02-04T10:59:25;91416.72;;;1.19;100.00
37206;BME280;23099;42.636;23.198;2023-02-04T11:01:54;91424.16;;;1.17;100.00
37206;BME280;23099;42.636;23.198;2023-02-04T11:04:22;91427.72;;;1.21;100.00
37206;BME280;23099;42.636;23.198;2023-02-04T11:06:49;91421.34;;;1.22;100.00
37206;BME280;23099;42.636;23.198;2023-02-04T11:09:18;91416.03;;;1.31;100.00
37206;BME280;23099;42.636;23.198;2023-02-04T11:11:46;91406.75;;;1.33;100.00
37206;BME280;23099;42.636;23.198;2023-02-04T11:14:22;91404.94;;;1.25;100.00
37206;BME280;23099;42.636;23.198;2023-02-04T11:16:49;91408.38;;;1.17;100.00
37206;BME280;23099;42.636;23.198;2023-02-04T11:19:30;91400.44;;;1.26;100.00
37206;BME280;23099;42.636;23.198;2023-02-04T11:22:07;91404.75;;;1.30;100.00
37206;BME280;23099;42.636;23.198;2023-02-04T11:24:47;91400.38;;;1.43;100.00
37206;BME280;23099;42.636;23.198;2023-02-04T11:27:20;91396.06;;;1.59;100.00
37206;BME280;23099;42.636;23.198;2023-02-04T11:29:47;91392.94;;;1.66;100.00
37206;BME280;23099;42.636;23.198;2023-02-04T11:32:31;91391.53;;;1.68;100.00
37206;BME280;23099;42.636;23.198;2023-02-04T11:35:20;91387.59;;;1.74;100.00
37206;BME280;23099;42.636;23.198;2023-02-04T11:37:47;91391.72;;;1.84;100.00
37206;BME280;23099;42.636;23.198;2023-02-04T11:40:25;91392.19;;;1.86;100.00
37206;BME280;23099;42.636;23.198;2023-02-04T11:42:58;91402.81;;;1.90;100.00
37206;BME280;23099;42.636;23.198;2023-02-04T11:45:27;91391.84;;;1.88;100.00
37206;BME280;23099;42.636;23.198;2023-02-04T11:47:56;91379.81;;;1.78;100.00
37206;BME280;23099;42.636;23.198;2023-02-04T11:50:26;91380.97;;;1.89;100.00
37206;BME280;23099;42.636;23.198;2023-02-04T11:52:54;91392.44;;;1.93;100.00
37206;BME280;23099;42.636;23.198;2023-02-04T11:55:23;91382.38;;;2.07;100.00
37206;BME280;23099;42.636;23.198;2023-02-04T11:57:51;91390.47;;;2.02;100.00
37206;BME280;23099;42.636;23.198;2023-02-04T12:00:19;91379.53;;;2.00;100.00
37206;BME280;23099;42.636;23.198;2023-02-04T12:02:48;91378.44;;;2.01;100.00
37206;BME280;23099;42.636;23.198;2023-02-04T12:05:17;91376.88;;;2.00;100.00
37206;BME280;23099;42.636;23.198;2023-02-04T12:07:44;91390.47;;;2.02;100.00
37206;BME280;23099;42.636;23.198;2023-02-04T12:10:24;91374.94;;;2.09;100.00
37206;BME280;23099;42.636;23.198;2023-02-04T12:12:52;91379.25;;;2.14;100.00
37206;BME280;23099;42.636;23.198;2023-02-04T12:15:23;91381.97;;;2.18;100.00
37206;BME280;23099;42.636;23.198;2023-02-04T12:18:01;91373.72;;;2.07;100.00
37206;BME280;23099;42.636;23.198;2023-02-04T12:20:28;91372.03;;;2.02;100.00
37206;BME280;23099;42.636;23.198;2023-02-04T12:22:55;91377.66;;;2.01;100.00
37206;BME280;23099;42.636;23.198;2023-02-04T12:25:23;91385.44;;;1.97;100.00
37206;BME280;23099;42.636;23.198;2023-02-04T12:27:51;91381.47;;;2.03;100.00
37206;BME280;23099;42.636;23.198;2023-02-04T12:30:19;91371.16;;;1.98;100.00
37206;BME280;23099;42.636;23.198;2023-02-04T12:32:45;91380.34;;;1.92;100.00
37206;BME280;23099;42.636;23.198;2023-02-04T12:35:12;91376.03;;;1.88;100.00
37206;BME280;23099;42.636;23.198;2023-02-04T12:37:39;91372.56;;;1.96;100.00
37206;BME280;23099;42.636;23.198;2023-02-04T12:40:07;91382.38;;;2.07;100.00
37206;BME280;23099;42.636;23.198;2023-02-04T12:42:35;91383.94;;;2.08;100.00
37206;BME280;23099;42.636;23.198;2023-02-04T12:45:02;91380.72;;;2.03;100.00
37206;BME280;23099;42.636;23.198;2023-02-04T12:47:28;91381.75;;;1.90;100.00
37206;BME280;23099;42.636;23.198;2023-02-04T12:49:55;91399.50;;;1.81;100.00
37206;BME280;23099;42.636;23.198;2023-02-04T12:52:22;91388.28;;;1.63;100.00
37206;BME280;23099;42.636;23.198;2023-02-04T12:54:49;91394.34;;;1.63;100.00
37206;BME280;23099;42.636;23.198;2023-02-04T12:57:15;91392.75;;;1.71;100.00
37206;BME280;23099;42.636;23.198;2023-02-04T12:59:45;91393.84;;;1.70;100.00
37206;BME280;23099;42.636;23.198;2023-02-04T13:02:13;91396.66;;;1.65;100.00